sensor_id;sensor_type;location;lat;lon;timestamp;temperature;humidity
42199;DHT22;27868;45.184;5.786;2023-05-07T00:02:29;20.90;63.40
42199;DHT22;27868;45.184;5.786;2023-05-07T00:05:14;20.90;63.40
42199;DHT22;27868;45.184;5.786;2023-05-07T00:07:59;21.00;63.40
42199;DHT22;27868;45.184;5.786;2023-05-07T00:10:43;21.00;63.20
42199;DHT22;27868;45.184;5.786;2023-05-07T00:13:28;21.00;63.10
42199;DHT22;27868;45.184;5.786;2023-05-07T00:16:19;21.00;62.40
42199;DHT22;27868;45.184;5.786;2023-05-07T00:19:03;21.00;62.30
42199;DHT22;27868;45.184;5.786;2023-05-07T00:21:48;20.90;61.90
42199;DHT22;27868;45.184;5.786;2023-05-07T00:24:33;21.00;61.60
42199;DHT22;27868;45.184;5.786;2023-05-07T00:27:17;20.90;61.50
42199;DHT22;27868;45.184;5.786;2023-05-07T00:30:02;21.00;60.90
42199;DHT22;27868;45.184;5.786;2023-05-07T00:32:46;20.90;61.30
42199;DHT22;27868;45.184;5.786;2023-05-07T00:35:33;20.90;61.00
42199;DHT22;27868;45.184;5.786;2023-05-07T00:38:17;20.90;60.70
42199;DHT22;27868;45.184;5.786;2023-05-07T00:41:02;20.80;60.50
42199;DHT22;27868;45.184;5.786;2023-05-07T00:43:46;20.80;60.50
42199;DHT22;27868;45.184;5.786;2023-05-07T00:46:31;20.80;60.30
42199;DHT22;27868;45.184;5.786;2023-05-07T00:49:16;20.80;60.50
42199;DHT22;27868;45.184;5.786;2023-05-07T00:52:01;20.70;60.60
42199;DHT22;27868;45.184;5.786;2023-05-07T00:54:45;20.70;60.50
42199;DHT22;27868;45.184;5.786;2023-05-07T00:57:30;20.60;60.40
42199;DHT22;27868;45.184;5.786;2023-05-07T01:00:16;20.60;60.50
42199;DHT22;27868;45.184;5.786;2023-05-07T01:03:02;20.60;60.60
42199;DHT22;27868;45.184;5.786;2023-05-07T01:05:47;20.60;60.50
42199;DHT22;27868;45.184;5.786;2023-05-07T01:08:31;20.50;61.40
42199;DHT22;27868;45.184;5.786;2023-05-07T01:11:17;20.40;61.70
42199;DHT22;27868;45.184;5.786;2023-05-07T01:14:03;20.30;62.10
42199;DHT22;27868;45.184;5.786;2023-05-07T01:16:48;20.20;61.90
42199;DHT22;27868;45.184;5.786;2023-05-07T01:19:35;20.30;62.00
42199;DHT22;27868;45.184;5.786;2023-05-07T01:22:28;20.30;62.00
42199;DHT22;27868;45.184;5.786;2023-05-07T01:25:12;20.30;61.90
42199;DHT22;27868;45.184;5.786;2023-05-07T01:27:58;20.20;62.00
42199;DHT22;27868;45.184;5.786;2023-05-07T01:30:45;20.10;62.70
42199;DHT22;27868;45.184;5.786;2023-05-07T01:33:33;20.10;62.90
42199;DHT22;27868;45.184;5.786;2023-05-07T01:36:19;20.10;64.30
42199;DHT22;27868;45.184;5.786;2023-05-07T01:39:04;20.10;63.20
42199;DHT22;27868;45.184;5.786;2023-05-07T01:41:50;20.20;63.10
42199;DHT22;27868;45.184;5.786;2023-05-07T01:44:34;20.20;62.60
42199;DHT22;27868;45.184;5.786;2023-05-07T01:47:19;20.20;62.50
42199;DHT22;27868;45.184;5.786;2023-05-07T01:50:08;20.20;62.40
42199;DHT22;27868;45.184;5.786;2023-05-07T01:52:54;20.20;62.10
42199;DHT22;27868;45.184;5.786;2023-05-07T01:55:38;20.20;61.90
42199;DHT22;27868;45.184;5.786;2023-05-07T01:58:24;20.20;62.10
42199;DHT22;27868;45.184;5.786;2023-05-07T02:01:08;20.10;62.50
42199;DHT22;27868;45.184;5.786;2023-05-07T02:03:53;20.10;62.60
42199;DHT22;27868;45.184;5.786;2023-05-07T02:06:38;20.10;62.50
42199;DHT22;27868;45.184;5.786;2023-05-07T02:09:23;20.10;62.30
42199;DHT22;27868;45.184;5.786;2023-05-07T02:12:07;20.10;62.70
42199;DHT22;27868;45.184;5.786;2023-05-07T02:14:52;20.00;62.30
42199;DHT22;27868;45.184;5.786;2023-05-07T02:17:59;20.00;62.90
42199;DHT22;27868;45.184;5.786;2023-05-07T02:20:44;20.00;62.80
42199;DHT22;27868;45.184;5.786;2023-05-07T02:23:28;20.00;62.60
42199;DHT22;27868;45.184;5.786;2023-05-07T02:26:13;20.00;62.70
42199;DHT22;27868;45.184;5.786;2023-05-07T02:28:58;20.00;62.80
42199;DHT22;27868;45.184;5.786;2023-05-07T02:31:42;20.00;62.90
42199;DHT22;27868;45.184;5.786;2023-05-07T02:34:27;19.90;63.10
42199;DHT22;27868;45.184;5.786;2023-05-07T02:37:11;19.90;63.40
42199;DHT22;27868;45.184;5.786;2023-05-07T02:39:56;19.90;63.50
42199;DHT22;27868;45.184;5.786;2023-05-07T02:42:41;19.90;63.70
42199;DHT22;27868;45.184;5.786;2023-05-07T02:45:25;19.90;63.90
42199;DHT22;27868;45.184;5.786;2023-05-07T02:48:09;19.80;63.90
42199;DHT22;27868;45.184;5.786;2023-05-07T02:50:54;19.70;64.20
42199;DHT22;27868;45.184;5.786;2023-05-07T02:53:39;19.70;64.50
42199;DHT22;27868;45.184;5.786;2023-05-07T02:56:25;19.70;64.80
42199;DHT22;27868;45.184;5.786;2023-05-07T02:59:09;19.70;64.90
42199;DHT22;27868;45.184;5.786;2023-05-07T03:01:54;19.60;65.20
42199;DHT22;27868;45.184;5.786;2023-05-07T03:04:39;19.60;65.40
42199;DHT22;27868;45.184;5.786;2023-05-07T03:07:23;19.60;65.60
42199;DHT22;27868;45.184;5.786;2023-05-07T03:10:08;19.50;65.60
42199;DHT22;27868;45.184;5.786;2023-05-07T03:12:53;19.50;66.10
42199;DHT22;27868;45.184;5.786;2023-05-07T03:15:37;19.40;66.30
42199;DHT22;27868;45.184;5.786;2023-05-07T03:18:22;19.30;66.30
42199;DHT22;27868;45.184;5.786;2023-05-07T03:21:06;19.30;66.70
42199;DHT22;27868;45.184;5.786;2023-05-07T03:23:50;19.20;67.00
42199;DHT22;27868;45.184;5.786;2023-05-07T03:26:35;19.20;66.90
42199;DHT22;27868;45.184;5.786;2023-05-07T03:29:20;19.20;68.10
42199;DHT22;27868;45.184;5.786;2023-05-07T03:32:04;19.20;67.10
42199;DHT22;27868;45.184;5.786;2023-05-07T03:34:50;19.20;67.10
42199;DHT22;27868;45.184;5.786;2023-05-07T03:37:34;19.20;67.00
42199;DHT22;27868;45.184;5.786;2023-05-07T03:40:19;19.20;66.80
42199;DHT22;27868;45.184;5.786;2023-05-07T03:43:03;19.20;66.90
42199;DHT22;27868;45.184;5.786;2023-05-07T03:45:48;19.20;66.90
42199;DHT22;27868;45.184;5.786;2023-05-07T03:48:32;19.20;66.90
42199;DHT22;27868;45.184;5.786;2023-05-07T03:51:17;19.20;67.40
42199;DHT22;27868;45.184;5.786;2023-05-07T03:54:01;19.10;67.60
42199;DHT22;27868;45.184;5.786;2023-05-07T03:56:46;19.10;67.70
42199;DHT22;27868;45.184;5.786;2023-05-07T03:59:30;19.10;68.00
42199;DHT22;27868;45.184;5.786;2023-05-07T04:02:15;19.10;68.00
42199;DHT22;27868;45.184;5.786;2023-05-07T04:04:59;19.00;68.10
42199;DHT22;27868;45.184;5.786;2023-05-07T04:07:44;19.00;68.20
42199;DHT22;27868;45.184;5.786;2023-05-07T04:10:29;19.00;68.20
42199;DHT22;27868;45.184;5.786;2023-05-07T04:13:13;19.00;68.20
42199;DHT22;27868;45.184;5.786;2023-05-07T04:15:58;19.00;68.40
42199;DHT22;27868;45.184;5.786;2023-05-07T04:18:43;18.90;68.40
42199;DHT22;27868;45.184;5.786;2023-05-07T04:21:27;18.90;68.80
42199;DHT22;27868;45.184;5.786;2023-05-07T04:24:11;18.90;68.90
42199;DHT22;27868;45.184;5.786;2023-05-07T04:26:56;18.80;69.10
42199;DHT22;27868;45.184;5.786;2023-05-07T04:29:42;18.80;69.00
42199;DHT22;27868;45.184;5.786;2023-05-07T04:32:31;18.80;69.20
42199;DHT22;27868;45.184;5.786;2023-05-07T04:35:15;18.70;69.20
42199;DHT22;27868;45.184;5.786;2023-05-07T04:38:00;18.70;69.30
42199;DHT22;27868;45.184;5.786;2023-05-07T04:40:46;18.70;69.60
42199;DHT22;27868;45.184;5.786;2023-05-07T04:43:31;18.70;69.60
42199;DHT22;27868;45.184;5.786;2023-05-07T04:46:15;18.70;69.60
42199;DHT22;27868;45.184;5.786;2023-05-07T04:49:00;18.70;69.60
42199;DHT22;27868;45.184;5.786;2023-05-07T04:51:44;18.70;69.70
42199;DHT22;27868;45.184;5.786;2023-05-07T04:54:30;18.70;69.80
42199;DHT22;27868;45.184;5.786;2023-05-07T04:57:14;18.70;69.90
42199;DHT22;27868;45.184;5.786;2023-05-07T04:59:59;18.70;70.00
42199;DHT22;27868;45.184;5.786;2023-05-07T05:02:43;18.60;70.00
42199;DHT22;27868;45.184;5.786;2023-05-07T05:05:28;18.60;70.10
42199;DHT22;27868;45.184;5.786;2023-05-07T05:08:12;18.60;70.10
42199;DHT22;27868;45.184;5.786;2023-05-07T05:10:57;18.70;70.20
42199;DHT22;27868;45.184;5.786;2023-05-07T05:13:41;18.60;70.20
42199;DHT22;27868;45.184;5.786;2023-05-07T05:16:26;18.60;70.30
42199;DHT22;27868;45.184;5.786;2023-05-07T05:19:10;18.60;70.60
42199;DHT22;27868;45.184;5.786;2023-05-07T05:21:55;18.60;70.70
42199;DHT22;27868;45.184;5.786;2023-05-07T05:24:39;18.60;70.70
42199;DHT22;27868;45.184;5.786;2023-05-07T05:27:24;18.60;70.80
42199;DHT22;27868;45.184;5.786;2023-05-07T05:30:09;18.60;70.80
42199;DHT22;27868;45.184;5.786;2023-05-07T05:32:54;18.60;70.90
42199;DHT22;27868;45.184;5.786;2023-05-07T05:35:38;18.70;71.10
42199;DHT22;27868;45.184;5.786;2023-05-07T05:38:23;18.70;71.20
42199;DHT22;27868;45.184;5.786;2023-05-07T05:41:07;18.60;71.40
42199;DHT22;27868;45.184;5.786;2023-05-07T05:43:52;18.60;71.50
42199;DHT22;27868;45.184;5.786;2023-05-07T05:46:38;18.70;71.60
42199;DHT22;27868;45.184;5.786;2023-05-07T05:49:22;18.70;71.60
42199;DHT22;27868;45.184;5.786;2023-05-07T05:52:06;18.70;71.60
42199;DHT22;27868;45.184;5.786;2023-05-07T05:54:51;18.70;71.50
42199;DHT22;27868;45.184;5.786;2023-05-07T05:57:35;18.80;71.50
42199;DHT22;27868;45.184;5.786;2023-05-07T06:00:20;18.70;71.30
42199;DHT22;27868;45.184;5.786;2023-05-07T06:03:06;18.70;71.30
42199;DHT22;27868;45.184;5.786;2023-05-07T06:05:51;18.80;71.40
42199;DHT22;27868;45.184;5.786;2023-05-07T06:08:35;18.80;71.40
42199;DHT22;27868;45.184;5.786;2023-05-07T06:11:20;18.80;71.30
42199;DHT22;27868;45.184;5.786;2023-05-07T06:14:04;18.80;71.30
42199;DHT22;27868;45.184;5.786;2023-05-07T06:16:49;18.90;71.30
42199;DHT22;27868;45.184;5.786;2023-05-07T06:19:33;18.90;71.60
42199;DHT22;27868;45.184;5.786;2023-05-07T06:22:18;18.90;71.60
42199;DHT22;27868;45.184;5.786;2023-05-07T06:25:02;18.90;71.70
42199;DHT22;27868;45.184;5.786;2023-05-07T06:27:47;19.00;71.80
42199;DHT22;27868;45.184;5.786;2023-05-07T06:30:32;19.00;71.80
42199;DHT22;27868;45.184;5.786;2023-05-07T06:33:16;19.10;71.90
42199;DHT22;27868;45.184;5.786;2023-05-07T06:36:01;19.10;71.80
42199;DHT22;27868;45.184;5.786;2023-05-07T06:38:45;19.20;72.00
42199;DHT22;27868;45.184;5.786;2023-05-07T06:41:30;19.20;71.60
42199;DHT22;27868;45.184;5.786;2023-05-07T06:44:14;19.30;71.50
42199;DHT22;27868;45.184;5.786;2023-05-07T06:46:59;19.30;71.30
42199;DHT22;27868;45.184;5.786;2023-05-07T06:49:43;19.40;71.30
42199;DHT22;27868;45.184;5.786;2023-05-07T06:52:28;19.40;71.40
42199;DHT22;27868;45.184;5.786;2023-05-07T06:55:13;19.50;71.40
42199;DHT22;27868;45.184;5.786;2023-05-07T06:57:57;19.60;71.20
42199;DHT22;27868;45.184;5.786;2023-05-07T07:00:45;19.70;71.00
42199;DHT22;27868;45.184;5.786;2023-05-07T07:03:29;19.70;70.90
42199;DHT22;27868;45.184;5.786;2023-05-07T07:06:14;19.80;70.20
42199;DHT22;27868;45.184;5.786;2023-05-07T07:08:59;19.90;69.90
42199;DHT22;27868;45.184;5.786;2023-05-07T07:11:43;20.00;69.80
42199;DHT22;27868;45.184;5.786;2023-05-07T07:14:28;20.10;69.60
42199;DHT22;27868;45.184;5.786;2023-05-07T07:17:12;20.10;69.40
42199;DHT22;27868;45.184;5.786;2023-05-07T07:19:57;20.10;68.90
42199;DHT22;27868;45.184;5.786;2023-05-07T07:22:41;20.20;69.00
42199;DHT22;27868;45.184;5.786;2023-05-07T07:25:26;20.20;68.70
42199;DHT22;27868;45.184;5.786;2023-05-07T07:28:10;20.30;68.60
42199;DHT22;27868;45.184;5.786;2023-05-07T07:30:55;20.30;68.60
42199;DHT22;27868;45.184;5.786;2023-05-07T07:33:40;20.40;68.50
42199;DHT22;27868;45.184;5.786;2023-05-07T07:36:24;20.40;68.60
42199;DHT22;27868;45.184;5.786;2023-05-07T07:39:09;20.40;68.20
42199;DHT22;27868;45.184;5.786;2023-05-07T07:41:54;20.50;68.10
42199;DHT22;27868;45.184;5.786;2023-05-07T07:44:38;20.50;67.80
42199;DHT22;27868;45.184;5.786;2023-05-07T07:47:23;20.60;67.60
42199;DHT22;27868;45.184;5.786;2023-05-07T07:50:08;20.60;67.60
42199;DHT22;27868;45.184;5.786;2023-05-07T07:52:52;20.70;67.80
42199;DHT22;27868;45.184;5.786;2023-05-07T07:55:40;20.70;67.60
42199;DHT22;27868;45.184;5.786;2023-05-07T08:03:49;21.00;66.50
42199;DHT22;27868;45.184;5.786;2023-05-07T08:06:34;21.00;66.50
42199;DHT22;27868;45.184;5.786;2023-05-07T08:09:18;21.10;66.00
42199;DHT22;27868;45.184;5.786;2023-05-07T08:12:03;21.20;65.80
42199;DHT22;27868;45.184;5.786;2023-05-07T08:14:48;21.30;65.90
42199;DHT22;27868;45.184;5.786;2023-05-07T08:17:32;21.30;65.60
42199;DHT22;27868;45.184;5.786;2023-05-07T08:20:17;21.30;65.50
42199;DHT22;27868;45.184;5.786;2023-05-07T08:23:01;21.40;65.60
42199;DHT22;27868;45.184;5.786;2023-05-07T08:25:46;21.50;65.10
42199;DHT22;27868;45.184;5.786;2023-05-07T08:28:31;21.60;65.10
42199;DHT22;27868;45.184;5.786;2023-05-07T08:31:15;21.70;65.30
42199;DHT22;27868;45.184;5.786;2023-05-07T08:34:00;21.70;65.20
42199;DHT22;27868;45.184;5.786;2023-05-07T08:36:44;21.70;65.00
42199;DHT22;27868;45.184;5.786;2023-05-07T08:39:31;21.80;64.60
42199;DHT22;27868;45.184;5.786;2023-05-07T08:42:16;21.90;64.10
42199;DHT22;27868;45.184;5.786;2023-05-07T08:45:01;21.90;64.10
42199;DHT22;27868;45.184;5.786;2023-05-07T08:47:51;21.90;63.40
42199;DHT22;27868;45.184;5.786;2023-05-07T08:50:37;21.90;64.20
42199;DHT22;27868;45.184;5.786;2023-05-07T08:53:22;22.00;64.60
42199;DHT22;27868;45.184;5.786;2023-05-07T08:56:08;22.00;64.90
42199;DHT22;27868;45.184;5.786;2023-05-07T08:58:52;22.00;65.10
42199;DHT22;27868;45.184;5.786;2023-05-07T09:01:40;21.90;65.30
42199;DHT22;27868;45.184;5.786;2023-05-07T09:04:25;21.90;65.30
42199;DHT22;27868;45.184;5.786;2023-05-07T09:07:09;22.00;65.60
42199;DHT22;27868;45.184;5.786;2023-05-07T09:09:54;21.90;65.80
42199;DHT22;27868;45.184;5.786;2023-05-07T09:12:39;21.90;66.50
42199;DHT22;27868;45.184;5.786;2023-05-07T09:15:24;21.90;66.90
42199;DHT22;27868;45.184;5.786;2023-05-07T09:18:09;21.80;67.30
42199;DHT22;27868;45.184;5.786;2023-05-07T09:20:54;21.70;67.80
42199;DHT22;27868;45.184;5.786;2023-05-07T09:23:39;21.70;68.00
42199;DHT22;27868;45.184;5.786;2023-05-07T09:26:24;21.70;68.30
42199;DHT22;27868;45.184;5.786;2023-05-07T09:29:09;21.60;68.40
42199;DHT22;27868;45.184;5.786;2023-05-07T09:31:54;21.60;69.00
42199;DHT22;27868;45.184;5.786;2023-05-07T09:34:39;21.60;69.50
42199;DHT22;27868;45.184;5.786;2023-05-07T09:37:25;21.50;69.70
42199;DHT22;27868;45.184;5.786;2023-05-07T09:40:20;21.50;70.80
42199;DHT22;27868;45.184;5.786;2023-05-07T09:43:11;21.40;70.40
42199;DHT22;27868;45.184;5.786;2023-05-07T09:45:57;21.40;70.60
42199;DHT22;27868;45.184;5.786;2023-05-07T09:48:43;21.30;70.90
42199;DHT22;27868;45.184;5.786;2023-05-07T09:51:35;21.30;71.70
42199;DHT22;27868;45.184;5.786;2023-05-07T09:54:23;21.30;72.60
42199;DHT22;27868;45.184;5.786;2023-05-07T09:57:09;21.30;73.10
42199;DHT22;27868;45.184;5.786;2023-05-07T09:59:55;21.30;73.30
42199;DHT22;27868;45.184;5.786;2023-05-07T10:02:40;21.20;73.00
42199;DHT22;27868;45.184;5.786;2023-05-07T10:05:30;21.20;73.00
42199;DHT22;27868;45.184;5.786;2023-05-07T10:08:15;21.10;73.20
42199;DHT22;27868;45.184;5.786;2023-05-07T10:11:01;21.10;73.30
42199;DHT22;27868;45.184;5.786;2023-05-07T10:13:46;21.00;73.30
42199;DHT22;27868;45.184;5.786;2023-05-07T10:16:30;21.00;73.10
42199;DHT22;27868;45.184;5.786;2023-05-07T10:19:16;20.90;73.00
42199;DHT22;27868;45.184;5.786;2023-05-07T10:22:03;20.90;73.10
42199;DHT22;27868;45.184;5.786;2023-05-07T10:24:48;20.80;73.20
42199;DHT22;27868;45.184;5.786;2023-05-07T10:27:34;20.80;73.40
42199;DHT22;27868;45.184;5.786;2023-05-07T10:33:24;20.70;73.60
42199;DHT22;27868;45.184;5.786;2023-05-07T10:36:10;20.70;73.30
42199;DHT22;27868;45.184;5.786;2023-05-07T10:38:54;20.70;73.50
42199;DHT22;27868;45.184;5.786;2023-05-07T10:41:39;20.60;73.60
42199;DHT22;27868;45.184;5.786;2023-05-07T10:44:27;20.50;73.50
42199;DHT22;27868;45.184;5.786;2023-05-07T10:47:12;20.50;73.90
42199;DHT22;27868;45.184;5.786;2023-05-07T10:56:23;20.50;73.50
42199;DHT22;27868;45.184;5.786;2023-05-07T10:59:22;20.50;74.00
42199;DHT22;27868;45.184;5.786;2023-05-07T11:02:03;20.40;73.50
42199;DHT22;27868;45.184;5.786;2023-05-07T11:07:54;20.50;73.50
42199;DHT22;27868;45.184;5.786;2023-05-07T11:13:43;20.40;73.50
42199;DHT22;27868;45.184;5.786;2023-05-07T11:16:29;20.40;73.60
42199;DHT22;27868;45.184;5.786;2023-05-07T11:19:14;20.50;73.60
42199;DHT22;27868;45.184;5.786;2023-05-07T11:21:58;20.50;73.60
42199;DHT22;27868;45.184;5.786;2023-05-07T11:24:43;20.60;73.30
42199;DHT22;27868;45.184;5.786;2023-05-07T11:27:27;20.50;73.30
42199;DHT22;27868;45.184;5.786;2023-05-07T11:30:19;20.50;74.00
42199;DHT22;27868;45.184;5.786;2023-05-07T11:33:03;20.50;73.60
42199;DHT22;27868;45.184;5.786;2023-05-07T11:35:48;20.50;73.60
42199;DHT22;27868;45.184;5.786;2023-05-07T11:38:35;20.50;73.60
42199;DHT22;27868;45.184;5.786;2023-05-07T11:41:19;20.60;73.50
42199;DHT22;27868;45.184;5.786;2023-05-07T11:44:04;20.60;73.40
42199;DHT22;27868;45.184;5.786;2023-05-07T11:46:49;20.70;73.50
42199;DHT22;27868;45.184;5.786;2023-05-07T11:49:34;20.70;73.50
42199;DHT22;27868;45.184;5.786;2023-05-07T11:52:19;20.70;72.90
42199;DHT22;27868;45.184;5.786;2023-05-07T11:55:04;20.60;73.10
42199;DHT22;27868;45.184;5.786;2023-05-07T11:57:48;20.60;73.20
42199;DHT22;27868;45.184;5.786;2023-05-07T12:00:33;20.60;72.90
42199;DHT22;27868;45.184;5.786;2023-05-07T12:03:18;20.60;72.90
42199;DHT22;27868;45.184;5.786;2023-05-07T12:06:02;20.60;72.90
42199;DHT22;27868;45.184;5.786;2023-05-07T12:08:47;20.50;72.90
42199;DHT22;27868;45.184;5.786;2023-05-07T12:11:31;20.50;73.20
42199;DHT22;27868;45.184;5.786;2023-05-07T12:14:16;20.60;73.10
42199;DHT22;27868;45.184;5.786;2023-05-07T12:17:00;20.60;72.90
42199;DHT22;27868;45.184;5.786;2023-05-07T12:19:47;20.80;72.20
42199;DHT22;27868;45.184;5.786;2023-05-07T12:22:31;20.90;71.80
42199;DHT22;27868;45.184;5.786;2023-05-07T12:25:18;20.90;71.70
42199;DHT22;27868;45.184;5.786;2023-05-07T12:28:03;20.90;71.90
42199;DHT22;27868;45.184;5.786;2023-05-07T12:30:50;21.00;72.10
42199;DHT22;27868;45.184;5.786;2023-05-07T12:33:35;21.00;72.00
42199;DHT22;27868;45.184;5.786;2023-05-07T12:36:19;21.10;72.10
42199;DHT22;27868;45.184;5.786;2023-05-07T12:39:06;21.10;71.50
42199;DHT22;27868;45.184;5.786;2023-05-07T12:41:57;21.10;72.00
42199;DHT22;27868;45.184;5.786;2023-05-07T12:44:45;21.10;71.80
42199;DHT22;27868;45.184;5.786;2023-05-07T12:47:30;21.10;71.20
42199;DHT22;27868;45.184;5.786;2023-05-07T12:50:15;21.10;71.60
42199;DHT22;27868;45.184;5.786;2023-05-07T12:52:59;21.10;71.10
42199;DHT22;27868;45.184;5.786;2023-05-07T12:55:45;21.10;71.40
42199;DHT22;27868;45.184;5.786;2023-05-07T12:58:30;21.20;71.50
42199;DHT22;27868;45.184;5.786;2023-05-07T13:01:15;21.30;70.60
42199;DHT22;27868;45.184;5.786;2023-05-07T13:04:03;21.20;71.00
42199;DHT22;27868;45.184;5.786;2023-05-07T13:06:48;21.10;70.90
42199;DHT22;27868;45.184;5.786;2023-05-07T13:09:34;21.10;71.10
42199;DHT22;27868;45.184;5.786;2023-05-07T13:12:21;21.20;71.20
42199;DHT22;27868;45.184;5.786;2023-05-07T13:15:06;21.10;71.40
42199;DHT22;27868;45.184;5.786;2023-05-07T13:17:50;21.20;71.30
42199;DHT22;27868;45.184;5.786;2023-05-07T13:20:35;21.20;71.20
42199;DHT22;27868;45.184;5.786;2023-05-07T13:23:19;21.30;71.30
42199;DHT22;27868;45.184;5.786;2023-05-07T13:26:04;21.30;71.40
42199;DHT22;27868;45.184;5.786;2023-05-07T13:28:49;21.30;71.20
42199;DHT22;27868;45.184;5.786;2023-05-07T13:31:33;21.40;71.00
42199;DHT22;27868;45.184;5.786;2023-05-07T13:34:18;21.40;71.10
42199;DHT22;27868;45.184;5.786;2023-05-07T13:37:03;21.40;71.20
42199;DHT22;27868;45.184;5.786;2023-05-07T13:39:48;21.40;71.50
42199;DHT22;27868;45.184;5.786;2023-05-07T13:42:32;21.30;71.50
42199;DHT22;27868;45.184;5.786;2023-05-07T13:45:20;21.30;71.50
42199;DHT22;27868;45.184;5.786;2023-05-07T13:48:04;21.30;71.60
42199;DHT22;27868;45.184;5.786;2023-05-07T13:50:49;21.30;71.50
42199;DHT22;27868;45.184;5.786;2023-05-07T13:53:34;21.30;71.60
42199;DHT22;27868;45.184;5.786;2023-05-07T13:56:19;21.20;71.80
42199;DHT22;27868;45.184;5.786;2023-05-07T13:59:05;21.20;71.80
42199;DHT22;27868;45.184;5.786;2023-05-07T14:01:49;21.10;71.90
42199;DHT22;27868;45.184;5.786;2023-05-07T14:04:34;21.00;72.30
42199;DHT22;27868;45.184;5.786;2023-05-07T14:07:19;21.00;72.20
42199;DHT22;27868;45.184;5.786;2023-05-07T14:10:03;21.00;72.00
42199;DHT22;27868;45.184;5.786;2023-05-07T14:12:48;21.10;72.00
42199;DHT22;27868;45.184;5.786;2023-05-07T14:15:33;21.20;71.90
42199;DHT22;27868;45.184;5.786;2023-05-07T14:18:17;21.10;72.00
42199;DHT22;27868;45.184;5.786;2023-05-07T14:21:04;21.10;71.90
42199;DHT22;27868;45.184;5.786;2023-05-07T14:23:50;21.10;72.10
42199;DHT22;27868;45.184;5.786;2023-05-07T14:26:35;21.10;72.20
42199;DHT22;27868;45.184;5.786;2023-05-07T14:29:19;21.00;72.10
42199;DHT22;27868;45.184;5.786;2023-05-07T14:32:04;21.00;72.20
42199;DHT22;27868;45.184;5.786;2023-05-07T14:34:49;21.10;72.30
42199;DHT22;27868;45.184;5.786;2023-05-07T14:37:34;21.00;72.50
42199;DHT22;27868;45.184;5.786;2023-05-07T14:40:19;21.00;72.40
42199;DHT22;27868;45.184;5.786;2023-05-07T14:43:03;21.00;72.50
42199;DHT22;27868;45.184;5.786;2023-05-07T14:45:48;21.00;72.60
42199;DHT22;27868;45.184;5.786;2023-05-07T14:48:32;21.00;72.50
42199;DHT22;27868;45.184;5.786;2023-05-07T14:51:17;21.00;72.50
42199;DHT22;27868;45.184;5.786;2023-05-07T14:54:02;21.00;72.80
42199;DHT22;27868;45.184;5.786;2023-05-07T14:56:47;20.90;72.50
42199;DHT22;27868;45.184;5.786;2023-05-07T14:59:32;21.00;72.60
42199;DHT22;27868;45.184;5.786;2023-05-07T15:02:17;21.00;72.90
42199;DHT22;27868;45.184;5.786;2023-05-07T15:05:02;21.10;72.80
42199;DHT22;27868;45.184;5.786;2023-05-07T15:07:47;21.00;72.70
42199;DHT22;27868;45.184;5.786;2023-05-07T15:10:34;21.00;72.70
42199;DHT22;27868;45.184;5.786;2023-05-07T15:13:24;21.00;72.70
42199;DHT22;27868;45.184;5.786;2023-05-07T15:16:08;21.00;72.60
42199;DHT22;27868;45.184;5.786;2023-05-07T15:18:53;21.00;72.70
42199;DHT22;27868;45.184;5.786;2023-05-07T15:21:38;21.00;72.90
42199;DHT22;27868;45.184;5.786;2023-05-07T15:24:22;21.00;72.80
42199;DHT22;27868;45.184;5.786;2023-05-07T15:27:07;21.00;72.80
42199;DHT22;27868;45.184;5.786;2023-05-07T15:29:51;21.00;72.70
42199;DHT22;27868;45.184;5.786;2023-05-07T15:32:36;21.00;72.80
42199;DHT22;27868;45.184;5.786;2023-05-07T15:35:21;21.00;72.80
42199;DHT22;27868;45.184;5.786;2023-05-07T15:38:06;21.00;72.80
42199;DHT22;27868;45.184;5.786;2023-05-07T15:40:53;21.00;72.70
42199;DHT22;27868;45.184;5.786;2023-05-07T15:43:43;21.00;72.70
42199;DHT22;27868;45.184;5.786;2023-05-07T15:46:28;21.00;72.80
42199;DHT22;27868;45.184;5.786;2023-05-07T15:49:13;21.00;72.80
42199;DHT22;27868;45.184;5.786;2023-05-07T15:51:57;20.90;73.00
42199;DHT22;27868;45.184;5.786;2023-05-07T15:54:42;20.80;72.90
42199;DHT22;27868;45.184;5.786;2023-05-07T15:57:27;20.80;73.10
42199;DHT22;27868;45.184;5.786;2023-05-07T16:00:11;20.80;73.10
42199;DHT22;27868;45.184;5.786;2023-05-07T16:02:57;20.80;73.10
42199;DHT22;27868;45.184;5.786;2023-05-07T16:05:42;20.80;73.00
42199;DHT22;27868;45.184;5.786;2023-05-07T16:08:26;20.80;73.10
42199;DHT22;27868;45.184;5.786;2023-05-07T16:11:10;20.80;73.20
42199;DHT22;27868;45.184;5.786;2023-05-07T16:13:55;20.80;73.40
42199;DHT22;27868;45.184;5.786;2023-05-07T16:16:39;20.80;73.70
42199;DHT22;27868;45.184;5.786;2023-05-07T16:19:24;20.80;73.90
42199;DHT22;27868;45.184;5.786;2023-05-07T16:22:09;20.90;74.00
42199;DHT22;27868;45.184;5.786;2023-05-07T16:24:54;20.90;74.00
42199;DHT22;27868;45.184;5.786;2023-05-07T16:27:39;20.90;74.00
42199;DHT22;27868;45.184;5.786;2023-05-07T16:30:23;20.90;74.00
42199;DHT22;27868;45.184;5.786;2023-05-07T16:33:08;20.90;73.90
42199;DHT22;27868;45.184;5.786;2023-05-07T16:35:52;20.90;74.00
42199;DHT22;27868;45.184;5.786;2023-05-07T16:38:37;21.00;73.90
42199;DHT22;27868;45.184;5.786;2023-05-07T16:41:21;20.90;75.20
42199;DHT22;27868;45.184;5.786;2023-05-07T16:44:06;20.80;77.00
42199;DHT22;27868;45.184;5.786;2023-05-07T16:46:52;20.80;77.60
42199;DHT22;27868;45.184;5.786;2023-05-07T16:49:37;20.70;76.40
42199;DHT22;27868;45.184;5.786;2023-05-07T16:52:22;20.70;76.70
42199;DHT22;27868;45.184;5.786;2023-05-07T16:55:06;20.80;77.30
42199;DHT22;27868;45.184;5.786;2023-05-07T16:57:51;20.80;77.90
42199;DHT22;27868;45.184;5.786;2023-05-07T17:00:35;20.80;77.50
42199;DHT22;27868;45.184;5.786;2023-05-07T17:03:20;20.80;77.20
42199;DHT22;27868;45.184;5.786;2023-05-07T17:06:05;20.70;77.10
42199;DHT22;27868;45.184;5.786;2023-05-07T17:08:56;20.80;76.90
42199;DHT22;27868;45.184;5.786;2023-05-07T17:11:40;20.80;77.20
42199;DHT22;27868;45.184;5.786;2023-05-07T17:14:25;20.80;76.90
42199;DHT22;27868;45.184;5.786;2023-05-07T17:17:09;20.80;76.80
42199;DHT22;27868;45.184;5.786;2023-05-07T17:19:54;20.70;77.00
42199;DHT22;27868;45.184;5.786;2023-05-07T17:22:38;20.70;76.70
42199;DHT22;27868;45.184;5.786;2023-05-07T17:25:23;20.60;76.90
42199;DHT22;27868;45.184;5.786;2023-05-07T17:28:08;20.60;76.90
42199;DHT22;27868;45.184;5.786;2023-05-07T17:30:54;20.60;77.00
42199;DHT22;27868;45.184;5.786;2023-05-07T17:33:38;20.50;77.10
42199;DHT22;27868;45.184;5.786;2023-05-07T17:36:23;20.50;77.30
42199;DHT22;27868;45.184;5.786;2023-05-07T17:39:08;20.50;77.00
42199;DHT22;27868;45.184;5.786;2023-05-07T17:41:52;20.40;77.50
42199;DHT22;27868;45.184;5.786;2023-05-07T17:44:37;20.40;77.20